sensor_id;sensor_type;location;lat;lon;timestamp;P1;durP1;ratioP1;P2;durP2;ratioP2
27939;SDS011;15275;51.716;14.324;2022-12-29T00:01:32;3.13;;;1.60;;
27939;SDS011;15275;51.716;14.324;2022-12-29T00:03:58;3.53;;;1.50;;
27939;SDS011;15275;51.716;14.324;2022-12-29T00:06:24;1.92;;;1.52;;
27939;SDS011;15275;51.716;14.324;2022-12-29T00:08:51;2.55;;;1.63;;
27939;SDS011;15275;51.716;14.324;2022-12-29T00:11:18;3.10;;;1.90;;
27939;SDS011;15275;51.716;14.324;2022-12-29T00:13:47;2.25;;;1.50;;
27939;SDS011;15275;51.716;14.324;2022-12-29T00:16:32;3.00;;;1.55;;
27939;SDS011;15275;51.716;14.324;2022-12-29T00:19:00;2.75;;;1.48;;
27939;SDS011;15275;51.716;14.324;2022-12-29T00:21:26;4.00;;;1.70;;
27939;SDS011;15275;51.716;14.324;2022-12-29T00:24:12;2.67;;;1.55;;
27939;SDS011;15275;51.716;14.324;2022-12-29T00:29:46;3.10;;;1.63;;
27939;SDS011;15275;51.716;14.324;2022-12-29T00:32:30;3.70;;;1.98;;
27939;SDS011;15275;51.716;14.324;2022-12-29T00:35:20;3.55;;;1.80;;
27939;SDS011;15275;51.716;14.324;2022-12-29T00:37:53;1.88;;;1.58;;
27939;SDS011;15275;51.716;14.324;2022-12-29T00:40:39;3.22;;;1.67;;
27939;SDS011;15275;51.716;14.324;2022-12-29T00:43:24;2.85;;;1.50;;
27939;SDS011;15275;51.716;14.324;2022-12-29T00:46:16;3.67;;;1.58;;
27939;SDS011;15275;51.716;14.324;2022-12-29T00:48:42;3.65;;;1.50;;
27939;SDS011;15275;51.716;14.324;2022-12-29T00:51:27;2.20;;;1.45;;
27939;SDS011;15275;51.716;14.324;2022-12-29T00:53:53;3.13;;;1.48;;
27939;SDS011;15275;51.716;14.324;2022-12-29T00:56:19;3.72;;;1.50;;
27939;SDS011;15275;51.716;14.324;2022-12-29T00:58:45;3.22;;;1.50;;
27939;SDS011;15275;51.716;14.324;2022-12-29T01:01:11;2.80;;;1.75;;
27939;SDS011;15275;51.716;14.324;2022-12-29T01:03:37;3.25;;;1.40;;
27939;SDS011;15275;51.716;14.324;2022-12-29T01:06:04;1.60;;;1.33;;
27939;SDS011;15275;51.716;14.324;2022-12-29T01:08:33;2.35;;;1.50;;
27939;SDS011;15275;51.716;14.324;2022-12-29T01:11:04;3.63;;;1.83;;
27939;SDS011;15275;51.716;14.324;2022-12-29T01:13:35;4.13;;;1.52;;
27939;SDS011;15275;51.716;14.324;2022-12-29T01:16:07;4.25;;;1.65;;
27939;SDS011;15275;51.716;14.324;2022-12-29T01:18:33;2.30;;;1.30;;
27939;SDS011;15275;51.716;14.324;2022-12-29T01:20:59;2.00;;;1.45;;
27939;SDS011;15275;51.716;14.324;2022-12-29T01:23:28;2.55;;;1.40;;
27939;SDS011;15275;51.716;14.324;2022-12-29T01:25:55;5.75;;;1.92;;
27939;SDS011;15275;51.716;14.324;2022-12-29T01:28:21;2.08;;;1.30;;
27939;SDS011;15275;51.716;14.324;2022-12-29T01:30:48;2.53;;;1.27;;
27939;SDS011;15275;51.716;14.324;2022-12-29T01:33:14;1.10;;;1.00;;
27939;SDS011;15275;51.716;14.324;2022-12-29T01:35:40;4.43;;;1.50;;
27939;SDS011;15275;51.716;14.324;2022-12-29T01:38:06;5.03;;;1.50;;
27939;SDS011;15275;51.716;14.324;2022-12-29T01:40:32;2.47;;;1.35;;
27939;SDS011;15275;51.716;14.324;2022-12-29T01:42:58;1.67;;;1.33;;
27939;SDS011;15275;51.716;14.324;2022-12-29T01:45:24;2.25;;;1.40;;
27939;SDS011;15275;51.716;14.324;2022-12-29T01:47:57;2.17;;;1.30;;
27939;SDS011;15275;51.716;14.324;2022-12-29T01:53:05;2.65;;;1.40;;
27939;SDS011;15275;51.716;14.324;2022-12-29T01:55:44;2.13;;;1.40;;
27939;SDS011;15275;51.716;14.324;2022-12-29T01:58:15;3.50;;;1.27;;
27939;SDS011;15275;51.716;14.324;2022-12-29T02:00:47;2.67;;;1.40;;
27939;SDS011;15275;51.716;14.324;2022-12-29T02:03:13;3.03;;;1.58;;
27939;SDS011;15275;51.716;14.324;2022-12-29T02:05:46;2.03;;;1.50;;
27939;SDS011;15275;51.716;14.324;2022-12-29T02:08:15;1.90;;;1.30;;
27939;SDS011;15275;51.716;14.324;2022-12-29T02:10:41;2.03;;;1.50;;
27939;SDS011;15275;51.716;14.324;2022-12-29T02:13:09;5.57;;;1.50;;
27939;SDS011;15275;51.716;14.324;2022-12-29T02:30:05;1.70;;;1.10;;
27939;SDS011;15275;51.716;14.324;2022-12-29T02:35:29;1.88;;;1.10;;
27939;SDS011;15275;51.716;14.324;2022-12-29T02:41:21;1.77;;;1.20;;
27939;SDS011;15275;51.716;14.324;2022-12-29T02:52:50;1.25;;;1.02;;
27939;SDS011;15275;51.716;14.324;2022-12-29T02:55:23;1.92;;;1.20;;
27939;SDS011;15275;51.716;14.324;2022-12-29T02:57:49;2.17;;;1.00;;
27939;SDS011;15275;51.716;14.324;2022-12-29T03:07:29;1.10;;;1.00;;
27939;SDS011;15275;51.716;14.324;2022-12-29T03:16:43;0.93;;;0.82;;
27939;SDS011;15275;51.716;14.324;2022-12-29T03:19:26;1.73;;;1.00;;
27939;SDS011;15275;51.716;14.324;2022-12-29T03:21:57;2.95;;;1.65;;
27939;SDS011;15275;51.716;14.324;2022-12-29T03:24:52;2.47;;;0.90;;
27939;SDS011;15275;51.716;14.324;2022-12-29T03:27:35;3.67;;;1.08;;
27939;SDS011;15275;51.716;14.324;2022-12-29T03:30:09;1.63;;;0.98;;
27939;SDS011;15275;51.716;14.324;2022-12-29T03:32:41;1.83;;;1.10;;
27939;SDS011;15275;51.716;14.324;2022-12-29T03:35:12;1.58;;;0.90;;
27939;SDS011;15275;51.716;14.324;2022-12-29T03:37:43;3.03;;;1.20;;
27939;SDS011;15275;51.716;14.324;2022-12-29T03:41:00;1.58;;;1.00;;
27939;SDS011;15275;51.716;14.324;2022-12-29T03:43:31;4.50;;;1.20;;
27939;SDS011;15275;51.716;14.324;2022-12-29T03:45:57;3.65;;;0.90;;
27939;SDS011;15275;51.716;14.324;2022-12-29T03:48:23;1.90;;;1.25;;
27939;SDS011;15275;51.716;14.324;2022-12-29T03:50:49;1.15;;;0.80;;
27939;SDS011;15275;51.716;14.324;2022-12-29T03:53:15;3.58;;;1.15;;
27939;SDS011;15275;51.716;14.324;2022-12-29T03:55:41;1.77;;;1.00;;
27939;SDS011;15275;51.716;14.324;2022-12-29T03:58:07;1.50;;;1.05;;
27939;SDS011;15275;51.716;14.324;2022-12-29T04:00:32;2.20;;;0.90;;
27939;SDS011;15275;51.716;14.324;2022-12-29T04:02:58;1.50;;;1.13;;
27939;SDS011;15275;51.716;14.324;2022-12-29T04:05:24;1.50;;;1.40;;
27939;SDS011;15275;51.716;14.324;2022-12-29T04:07:50;1.17;;;0.95;;
27939;SDS011;15275;51.716;14.324;2022-12-29T04:10:16;1.20;;;0.80;;
27939;SDS011;15275;51.716;14.324;2022-12-29T04:12:42;2.40;;;1.40;;
27939;SDS011;15275;51.716;14.324;2022-12-29T04:15:08;1.58;;;1.30;;
27939;SDS011;15275;51.716;14.324;2022-12-29T04:17:34;1.67;;;1.08;;
27939;SDS011;15275;51.716;14.324;2022-12-29T04:20:00;2.28;;;1.25;;
27939;SDS011;15275;51.716;14.324;2022-12-29T04:22:44;1.52;;;0.90;;
27939;SDS011;15275;51.716;14.324;2022-12-29T04:25:10;1.90;;;1.27;;
27939;SDS011;15275;51.716;14.324;2022-12-29T04:27:36;1.90;;;1.30;;
27939;SDS011;15275;51.716;14.324;2022-12-29T04:30:02;1.67;;;1.10;;
27939;SDS011;15275;51.716;14.324;2022-12-29T04:32:28;4.45;;;1.25;;
27939;SDS011;15275;51.716;14.324;2022-12-29T04:34:54;1.15;;;1.05;;
27939;SDS011;15275;51.716;14.324;2022-12-29T04:37:20;2.25;;;1.42;;
27939;SDS011;15275;51.716;14.324;2022-12-29T04:39:46;1.95;;;1.13;;
27939;SDS011;15275;51.716;14.324;2022-12-29T04:42:12;2.45;;;0.95;;
27939;SDS011;15275;51.716;14.324;2022-12-29T04:44:37;3.20;;;1.33;;
27939;SDS011;15275;51.716;14.324;2022-12-29T04:47:03;1.75;;;1.10;;
27939;SDS011;15275;51.716;14.324;2022-12-29T04:49:29;1.85;;;1.17;;
27939;SDS011;15275;51.716;14.324;2022-12-29T04:51:55;1.20;;;1.00;;
27939;SDS011;15275;51.716;14.324;2022-12-29T04:54:21;2.88;;;1.23;;
27939;SDS011;15275;51.716;14.324;2022-12-29T04:56:46;2.50;;;1.40;;
27939;SDS011;15275;51.716;14.324;2022-12-29T04:59:12;1.63;;;1.05;;
27939;SDS011;15275;51.716;14.324;2022-12-29T05:01:38;1.85;;;0.90;;
27939;SDS011;15275;51.716;14.324;2022-12-29T05:04:04;1.33;;;1.00;;
27939;SDS011;15275;51.716;14.324;2022-12-29T05:06:29;1.45;;;1.10;;
27939;SDS011;15275;51.716;14.324;2022-12-29T05:08:55;3.72;;;1.38;;
27939;SDS011;15275;51.716;14.324;2022-12-29T05:11:21;5.22;;;1.20;;
27939;SDS011;15275;51.716;14.324;2022-12-29T05:13:47;2.13;;;1.05;;
27939;SDS011;15275;51.716;14.324;2022-12-29T05:16:13;1.42;;;1.00;;
27939;SDS011;15275;51.716;14.324;2022-12-29T05:18:38;2.72;;;0.90;;
27939;SDS011;15275;51.716;14.324;2022-12-29T05:21:04;3.30;;;1.27;;
27939;SDS011;15275;51.716;14.324;2022-12-29T05:23:30;3.53;;;1.50;;
27939;SDS011;15275;51.716;14.324;2022-12-29T05:25:56;2.67;;;1.20;;
27939;SDS011;15275;51.716;14.324;2022-12-29T05:28:22;1.33;;;1.17;;
27939;SDS011;15275;51.716;14.324;2022-12-29T05:30:48;4.88;;;1.00;;
27939;SDS011;15275;51.716;14.324;2022-12-29T05:33:16;3.20;;;1.13;;
27939;SDS011;15275;51.716;14.324;2022-12-29T05:35:43;1.80;;;1.00;;
27939;SDS011;15275;51.716;14.324;2022-12-29T05:38:09;1.90;;;1.20;;
27939;SDS011;15275;51.716;14.324;2022-12-29T05:40:34;1.30;;;1.10;;
27939;SDS011;15275;51.716;14.324;2022-12-29T05:43:00;1.52;;;1.05;;
27939;SDS011;15275;51.716;14.324;2022-12-29T05:45:26;1.33;;;1.00;;
27939;SDS011;15275;51.716;14.324;2022-12-29T05:47:52;1.13;;;1.02;;
27939;SDS011;15275;51.716;14.324;2022-12-29T05:50:18;2.40;;;1.05;;
27939;SDS011;15275;51.716;14.324;2022-12-29T05:52:44;1.67;;;1.13;;
27939;SDS011;15275;51.716;14.324;2022-12-29T05:55:10;1.85;;;1.15;;
27939;SDS011;15275;51.716;14.324;2022-12-29T05:57:36;1.60;;;1.00;;
27939;SDS011;15275;51.716;14.324;2022-12-29T06:00:03;1.90;;;1.63;;
27939;SDS011;15275;51.716;14.324;2022-12-29T06:02:31;2.35;;;1.13;;
27939;SDS011;15275;51.716;14.324;2022-12-29T06:04:57;3.65;;;1.50;;
27939;SDS011;15275;51.716;14.324;2022-12-29T06:07:22;1.20;;;0.90;;
27939;SDS011;15275;51.716;14.324;2022-12-29T06:09:48;0.80;;;0.80;;
27939;SDS011;15275;51.716;14.324;2022-12-29T06:12:14;3.20;;;1.10;;
27939;SDS011;15275;51.716;14.324;2022-12-29T06:14:40;1.20;;;1.00;;
27939;SDS011;15275;51.716;14.324;2022-12-29T06:17:06;1.67;;;1.02;;
27939;SDS011;15275;51.716;14.324;2022-12-29T06:19:32;1.08;;;0.98;;
27939;SDS011;15275;51.716;14.324;2022-12-29T06:21:57;4.93;;;1.02;;
27939;SDS011;15275;51.716;14.324;2022-12-29T06:24:23;1.48;;;1.10;;
27939;SDS011;15275;51.716;14.324;2022-12-29T06:26:49;0.95;;;0.85;;
27939;SDS011;15275;51.716;14.324;2022-12-29T06:29:15;3.72;;;0.98;;
27939;SDS011;15275;51.716;14.324;2022-12-29T06:31:42;2.15;;;1.10;;
27939;SDS011;15275;51.716;14.324;2022-12-29T06:34:12;1.58;;;1.08;;
27939;SDS011;15275;51.716;14.324;2022-12-29T06:36:38;1.70;;;1.23;;
27939;SDS011;15275;51.716;14.324;2022-12-29T06:39:04;2.75;;;1.25;;
27939;SDS011;15275;51.716;14.324;2022-12-29T06:41:30;3.67;;;1.33;;
27939;SDS011;15275;51.716;14.324;2022-12-29T06:43:57;2.20;;;1.15;;
27939;SDS011;15275;51.716;14.324;2022-12-29T06:46:23;2.63;;;1.20;;
27939;SDS011;15275;51.716;14.324;2022-12-29T06:48:48;3.28;;;1.13;;
27939;SDS011;15275;51.716;14.324;2022-12-29T06:51:14;1.50;;;1.10;;
27939;SDS011;15275;51.716;14.324;2022-12-29T06:53:40;2.40;;;1.20;;
27939;SDS011;15275;51.716;14.324;2022-12-29T06:56:06;2.08;;;0.98;;
27939;SDS011;15275;51.716;14.324;2022-12-29T06:58:32;1.10;;;1.00;;
27939;SDS011;15275;51.716;14.324;2022-12-29T07:00:58;3.15;;;1.40;;
27939;SDS011;15275;51.716;14.324;2022-12-29T07:03:24;2.05;;;1.20;;
27939;SDS011;15275;51.716;14.324;2022-12-29T07:05:50;1.70;;;1.33;;
27939;SDS011;15275;51.716;14.324;2022-12-29T07:08:16;2.20;;;1.10;;
27939;SDS011;15275;51.716;14.324;2022-12-29T07:10:42;2.25;;;1.42;;
27939;SDS011;15275;51.716;14.324;2022-12-29T07:13:07;1.95;;;1.33;;
27939;SDS011;15275;51.716;14.324;2022-12-29T07:15:34;1.58;;;1.05;;
27939;SDS011;15275;51.716;14.324;2022-12-29T07:18:01;1.73;;;1.20;;
27939;SDS011;15275;51.716;14.324;2022-12-29T07:20:28;2.92;;;1.23;;
27939;SDS011;15275;51.716;14.324;2022-12-29T07:22:55;1.80;;;1.30;;
27939;SDS011;15275;51.716;14.324;2022-12-29T07:25:21;3.50;;;1.40;;
27939;SDS011;15275;51.716;14.324;2022-12-29T07:27:47;2.25;;;1.38;;
27939;SDS011;15275;51.716;14.324;2022-12-29T07:30:13;1.20;;;1.10;;
27939;SDS011;15275;51.716;14.324;2022-12-29T07:32:39;2.60;;;1.15;;
27939;SDS011;15275;51.716;14.324;2022-12-29T07:35:06;3.35;;;1.60;;
27939;SDS011;15275;51.716;14.324;2022-12-29T07:37:33;1.83;;;1.27;;
27939;SDS011;15275;51.716;14.324;2022-12-29T07:39:59;1.98;;;1.20;;
27939;SDS011;15275;51.716;14.324;2022-12-29T07:42:26;1.92;;;1.40;;
27939;SDS011;15275;51.716;14.324;2022-12-29T07:44:54;4.22;;;1.30;;
27939;SDS011;15275;51.716;14.324;2022-12-29T07:47:20;1.90;;;1.17;;
27939;SDS011;15275;51.716;14.324;2022-12-29T07:49:45;2.33;;;1.25;;
27939;SDS011;15275;51.716;14.324;2022-12-29T07:52:11;4.25;;;1.65;;
27939;SDS011;15275;51.716;14.324;2022-12-29T07:54:37;2.22;;;1.52;;
27939;SDS011;15275;51.716;14.324;2022-12-29T07:57:03;2.17;;;1.38;;
27939;SDS011;15275;51.716;14.324;2022-12-29T07:59:31;2.60;;;1.42;;
27939;SDS011;15275;51.716;14.324;2022-12-29T08:01:57;3.83;;;1.50;;
27939;SDS011;15275;51.716;14.324;2022-12-29T08:04:23;2.03;;;1.23;;
27939;SDS011;15275;51.716;14.324;2022-12-29T08:06:49;1.77;;;1.20;;
27939;SDS011;15275;51.716;14.324;2022-12-29T08:09:15;6.25;;;1.55;;
27939;SDS011;15275;51.716;14.324;2022-12-29T08:11:41;2.47;;;1.50;;
27939;SDS011;15275;51.716;14.324;2022-12-29T08:14:08;3.17;;;1.55;;
27939;SDS011;15275;51.716;14.324;2022-12-29T08:16:34;2.92;;;2.10;;
27939;SDS011;15275;51.716;14.324;2022-12-29T08:19:00;3.53;;;2.17;;
27939;SDS011;15275;51.716;14.324;2022-12-29T08:21:29;5.38;;;1.55;;
27939;SDS011;15275;51.716;14.324;2022-12-29T08:23:55;3.65;;;1.60;;
27939;SDS011;15275;51.716;14.324;2022-12-29T08:26:21;1.52;;;1.33;;
27939;SDS011;15275;51.716;14.324;2022-12-29T08:28:47;1.98;;;1.45;;
27939;SDS011;15275;51.716;14.324;2022-12-29T08:31:13;2.75;;;1.48;;
27939;SDS011;15275;51.716;14.324;2022-12-29T08:33:39;1.95;;;1.30;;
27939;SDS011;15275;51.716;14.324;2022-12-29T08:36:05;2.95;;;1.33;;
27939;SDS011;15275;51.716;14.324;2022-12-29T08:38:32;2.13;;;1.25;;
27939;SDS011;15275;51.716;14.324;2022-12-29T08:40:58;2.13;;;1.30;;
27939;SDS011;15275;51.716;14.324;2022-12-29T08:43:26;1.73;;;1.10;;
27939;SDS011;15275;51.716;14.324;2022-12-29T08:45:53;2.17;;;1.50;;
27939;SDS011;15275;51.716;14.324;2022-12-29T08:48:19;2.40;;;1.23;;
27939;SDS011;15275;51.716;14.324;2022-12-29T08:50:47;1.90;;;1.35;;
27939;SDS011;15275;51.716;14.324;2022-12-29T08:53:14;2.10;;;1.52;;
27939;SDS011;15275;51.716;14.324;2022-12-29T08:55:41;3.10;;;1.58;;
27939;SDS011;15275;51.716;14.324;2022-12-29T08:58:06;2.65;;;1.35;;
27939;SDS011;15275;51.716;14.324;2022-12-29T09:00:32;1.90;;;1.30;;
27939;SDS011;15275;51.716;14.324;2022-12-29T09:02:58;1.85;;;1.27;;
27939;SDS011;15275;51.716;14.324;2022-12-29T09:05:24;2.38;;;1.40;;
27939;SDS011;15275;51.716;14.324;2022-12-29T09:07:49;2.05;;;1.30;;
27939;SDS011;15275;51.716;14.324;2022-12-29T09:10:15;1.90;;;0.98;;
27939;SDS011;15275;51.716;14.324;2022-12-29T09:12:41;2.22;;;1.20;;
27939;SDS011;15275;51.716;14.324;2022-12-29T09:15:07;1.10;;;1.00;;
27939;SDS011;15275;51.716;14.324;2022-12-29T09:17:33;1.85;;;1.02;;
27939;SDS011;15275;51.716;14.324;2022-12-29T09:20:07;3.78;;;1.52;;
27939;SDS011;15275;51.716;14.324;2022-12-29T09:22:34;3.80;;;1.27;;
27939;SDS011;15275;51.716;14.324;2022-12-29T09:25:00;2.95;;;1.05;;
27939;SDS011;15275;51.716;14.324;2022-12-29T09:27:26;2.45;;;1.10;;
27939;SDS011;15275;51.716;14.324;2022-12-29T09:29:52;2.35;;;0.90;;
27939;SDS011;15275;51.716;14.324;2022-12-29T09:32:18;1.58;;;0.77;;
27939;SDS011;15275;51.716;14.324;2022-12-29T09:34:44;2.05;;;0.82;;
27939;SDS011;15275;51.716;14.324;2022-12-29T09:37:10;0.98;;;0.70;;
27939;SDS011;15275;51.716;14.324;2022-12-29T09:39:36;1.20;;;1.02;;
27939;SDS011;15275;51.716;14.324;2022-12-29T09:42:10;1.25;;;0.82;;
27939;SDS011;15275;51.716;14.324;2022-12-29T09:47:44;1.13;;;0.80;;
27939;SDS011;15275;51.716;14.324;2022-12-29T09:55:53;1.17;;;0.85;;
27939;SDS011;15275;51.716;14.324;2022-12-29T10:01:01;1.60;;;0.98;;
27939;SDS011;15275;51.716;14.324;2022-12-29T10:03:47;1.65;;;0.85;;
27939;SDS011;15275;51.716;14.324;2022-12-29T10:06:15;1.35;;;0.63;;
27939;SDS011;15275;51.716;14.324;2022-12-29T10:11:52;2.47;;;0.98;;
27939;SDS011;15275;51.716;14.324;2022-12-29T10:17:47;0.75;;;0.60;;
27939;SDS011;15275;51.716;14.324;2022-12-29T10:23:36;1.08;;;0.65;;
27939;SDS011;15275;51.716;14.324;2022-12-29T10:26:15;2.00;;;1.02;;
27939;SDS011;15275;51.716;14.324;2022-12-29T10:28:47;1.05;;;0.90;;
27939;SDS011;15275;51.716;14.324;2022-12-29T10:34:38;1.17;;;0.75;;
27939;SDS011;15275;51.716;14.324;2022-12-29T10:37:16;9.73;;;1.10;;
27939;SDS011;15275;51.716;14.324;2022-12-29T10:39:57;1.30;;;0.98;;
27939;SDS011;15275;51.716;14.324;2022-12-29T10:42:37;1.45;;;0.82;;
27939;SDS011;15275;51.716;14.324;2022-12-29T10:47:42;1.30;;;0.70;;
27939;SDS011;15275;51.716;14.324;2022-12-29T10:50:18;2.38;;;0.82;;
27939;SDS011;15275;51.716;14.324;2022-12-29T10:52:44;1.38;;;0.93;;
27939;SDS011;15275;51.716;14.324;2022-12-29T10:55:17;1.25;;;0.90;;
27939;SDS011;15275;51.716;14.324;2022-12-29T10:57:48;3.78;;;1.25;;
27939;SDS011;15275;51.716;14.324;2022-12-29T11:00:15;1.63;;;1.00;;
27939;SDS011;15275;51.716;14.324;2022-12-29T11:05:36;1.92;;;1.00;;
27939;SDS011;15275;51.716;14.324;2022-12-29T11:08:16;2.03;;;1.00;;
27939;SDS011;15275;51.716;14.324;2022-12-29T11:10:45;3.00;;;0.80;;
27939;SDS011;15275;51.716;14.324;2022-12-29T11:13:27;2.55;;;1.17;;
27939;SDS011;15275;51.716;14.324;2022-12-29T11:15:56;0.95;;;0.85;;
27939;SDS011;15275;51.716;14.324;2022-12-29T11:18:23;1.95;;;0.90;;
27939;SDS011;15275;51.716;14.324;2022-12-29T11:20:58;1.90;;;0.93;;
27939;SDS011;15275;51.716;14.324;2022-12-29T11:26:16;1.73;;;0.80;;
27939;SDS011;15275;51.716;14.324;2022-12-29T11:28:47;1.10;;;0.80;;
27939;SDS011;15275;51.716;14.324;2022-12-29T11:31:39;2.80;;;0.85;;
27939;SDS011;15275;51.716;14.324;2022-12-29T11:34:07;1.10;;;0.80;;
27939;SDS011;15275;51.716;14.324;2022-12-29T11:36:34;1.25;;;0.70;;
27939;SDS011;15275;51.716;14.324;2022-12-29T11:39:01;1.52;;;0.85;;
27939;SDS011;15275;51.716;14.324;2022-12-29T11:41:28;0.80;;;0.68;;
27939;SDS011;15275;51.716;14.324;2022-12-29T11:44:00;1.83;;;0.85;;
27939;SDS011;15275;51.716;14.324;2022-12-29T11:46:34;1.65;;;1.02;;
27939;SDS011;15275;51.716;14.324;2022-12-29T11:49:03;1.13;;;0.80;;
27939;SDS011;15275;51.716;14.324;2022-12-29T11:51:30;2.45;;;1.08;;
27939;SDS011;15275;51.716;14.324;2022-12-29T11:54:16;2.00;;;1.05;;
27939;SDS011;15275;51.716;14.324;2022-12-29T11:57:09;1.50;;;0.82;;
27939;SDS011;15275;51.716;14.324;2022-12-29T12:04:54;1.27;;;0.98;;
27939;SDS011;15275;51.716;14.324;2022-12-29T12:07:37;1.45;;;0.85;;
27939;SDS011;15275;51.716;14.324;2022-12-29T12:10:11;2.28;;;0.60;;
27939;SDS011;15275;51.716;14.324;2022-12-29T12:12:51;0.98;;;0.73;;
27939;SDS011;15275;51.716;14.324;2022-12-29T12:15:25;1.00;;;0.68;;
27939;SDS011;15275;51.716;14.324;2022-12-29T12:18:10;3.47;;;0.90;;
27939;SDS011;15275;51.716;14.324;2022-12-29T12:20:56;2.22;;;0.98;;
27939;SDS011;15275;51.716;14.324;2022-12-29T12:26:13;1.65;;;0.90;;
27939;SDS011;15275;51.716;14.324;2022-12-29T12:34:25;1.83;;;0.95;;
27939;SDS011;15275;51.716;14.324;2022-12-29T12:40:18;1.17;;;0.80;;
27939;SDS011;15275;51.716;14.324;2022-12-29T12:51:57;2.55;;;1.35;;
27939;SDS011;15275;51.716;14.324;2022-12-29T13:06:23;1.02;;;0.80;;
27939;SDS011;15275;51.716;14.324;2022-12-29T13:09:43;2.25;;;1.05;;
27939;SDS011;15275;51.716;14.324;2022-12-29T13:12:38;1.88;;;1.05;;
27939;SDS011;15275;51.716;14.324;2022-12-29T13:20:58;1.20;;;1.00;;
27939;SDS011;15275;51.716;14.324;2022-12-29T13:23:50;2.72;;;1.00;;
27939;SDS011;15275;51.716;14.324;2022-12-29T13:35:01;2.80;;;1.05;;
27939;SDS011;15275;51.716;14.324;2022-12-29T13:37:51;1.30;;;0.93;;
27939;SDS011;15275;51.716;14.324;2022-12-29T13:40:24;1.25;;;0.95;;
27939;SDS011;15275;51.716;14.324;2022-12-29T13:42:54;6.07;;;1.20;;
27939;SDS011;15275;51.716;14.324;2022-12-29T13:45:24;2.25;;;1.20;;
27939;SDS011;15275;51.716;14.324;2022-12-29T13:47:57;2.45;;;0.75;;
27939;SDS011;15275;51.716;14.324;2022-12-29T13:56:19;3.08;;;0.93;;
27939;SDS011;15275;51.716;14.324;2022-12-29T13:58:56;1.20;;;0.80;;
27939;SDS011;15275;51.716;14.324;2022-12-29T14:02:02;1.05;;;1.00;;
27939;SDS011;15275;51.716;14.324;2022-12-29T14:05:01;2.45;;;1.35;;
27939;SDS011;15275;51.716;14.324;2022-12-29T14:07:40;2.60;;;1.10;;
27939;SDS011;15275;51.716;14.324;2022-12-29T14:10:06;3.90;;;1.00;;
27939;SDS011;15275;51.716;14.324;2022-12-29T14:13:10;1.35;;;0.98;;
27939;SDS011;15275;51.716;14.324;2022-12-29T14:15:43;5.10;;;1.02;;
27939;SDS011;15275;51.716;14.324;2022-12-29T14:23:40;2.53;;;1.10;;
27939;SDS011;15275;51.716;14.324;2022-12-29T14:33:41;1.50;;;1.20;;
27939;SDS011;15275;51.716;14.324;2022-12-29T14:36:40;1.45;;;1.08;;
27939;SDS011;15275;51.716;14.324;2022-12-29T14:44:51;6.35;;;1.02;;
27939;SDS011;15275;51.716;14.324;2022-12-29T14:47:40;1.58;;;1.02;;
27939;SDS011;15275;51.716;14.324;2022-12-29T14:50:16;1.15;;;0.93;;
27939;SDS011;15275;51.716;14.324;2022-12-29T14:52:50;3.35;;;1.02;;
27939;SDS011;15275;51.716;14.324;2022-12-29T15:01:04;1.50;;;1.10;;
27939;SDS011;15275;51.716;14.324;2022-12-29T15:04:20;1.75;;;1.25;;
27939;SDS011;15275;51.716;14.324;2022-12-29T15:06:50;1.80;;;1.05;;
27939;SDS011;15275;51.716;14.324;2022-12-29T15:09:22;3.05;;;1.40;;
27939;SDS011;15275;51.716;14.324;2022-12-29T15:11:56;2.38;;;1.33;;
27939;SDS011;15275;51.716;14.324;2022-12-29T15:17:28;2.08;;;1.42;;
27939;SDS011;15275;51.716;14.324;2022-12-29T15:19:58;2.05;;;1.17;;
27939;SDS011;15275;51.716;14.324;2022-12-29T15:22:28;2.50;;;1.40;;
27939;SDS011;15275;51.716;14.324;2022-12-29T15:24:55;2.35;;;1.40;;
27939;SDS011;15275;51.716;14.324;2022-12-29T15:27:24;1.92;;;1.20;;
27939;SDS011;15275;51.716;14.324;2022-12-29T15:29:55;1.55;;;1.13;;
27939;SDS011;15275;51.716;14.324;2022-12-29T15:32:26;3.15;;;1.10;;
27939;SDS011;15275;51.716;14.324;2022-12-29T15:34:55;3.88;;;1.45;;
27939;SDS011;15275;51.716;14.324;2022-12-29T15:37:28;4.28;;;1.23;;
27939;SDS011;15275;51.716;14.324;2022-12-29T15:40:00;5.47;;;3.20;;
27939;SDS011;15275;51.716;14.324;2022-12-29T15:45:05;5.35;;;2.90;;
27939;SDS011;15275;51.716;14.324;2022-12-29T15:47:33;4.55;;;2.88;;
27939;SDS011;15275;51.716;14.324;2022-12-29T15:50:12;4.40;;;3.33;;
27939;SDS011;15275;51.716;14.324;2022-12-29T15:52:52;6.93;;;3.15;;
27939;SDS011;15275;51.716;14.324;2022-12-29T15:55:20;13.90;;;9.30;;
27939;SDS011;15275;51.716;14.324;2022-12-29T15:57:46;10.52;;;7.30;;
27939;SDS011;15275;51.716;14.324;2022-12-29T16:00:22;6.65;;;4.20;;
27939;SDS011;15275;51.716;14.324;2022-12-29T16:02:53;4.22;;;3.30;;
27939;SDS011;15275;51.716;14.324;2022-12-29T16:05:20;2.38;;;1.95;;
27939;SDS011;15275;51.716;14.324;2022-12-29T16:07:57;2.38;;;1.85;;
27939;SDS011;15275;51.716;14.324;2022-12-29T16:10:38;2.00;;;1.48;;
27939;SDS011;15275;51.716;14.324;2022-12-29T16:13:16;1.50;;;1.33;;
27939;SDS011;15275;51.716;14.324;2022-12-29T16:15:52;1.60;;;1.38;;
27939;SDS011;15275;51.716;14.324;2022-12-29T16:18:29;4.18;;;1.40;;
27939;SDS011;15275;51.716;14.324;2022-12-29T16:20:59;1.92;;;1.20;;
27939;SDS011;15275;51.716;14.324;2022-12-29T16:23:30;3.20;;;1.40;;
27939;SDS011;15275;51.716;14.324;2022-12-29T16:25:57;3.47;;;1.60;;
27939;SDS011;15275;51.716;14.324;2022-12-29T16:28:34;2.58;;;1.30;;
27939;SDS011;15275;51.716;14.324;2022-12-29T16:31:15;2.60;;;1.45;;
27939;SDS011;15275;51.716;14.324;2022-12-29T16:33:49;4.32;;;2.58;;
27939;SDS011;15275;51.716;14.324;2022-12-29T16:39:41;2.15;;;1.60;;
27939;SDS011;15275;51.716;14.324;2022-12-29T16:50:32;3.88;;;1.38;;
27939;SDS011;15275;51.716;14.324;2022-12-29T16:53:01;3.58;;;1.60;;
27939;SDS011;15275;51.716;14.324;2022-12-29T16:55:28;4.63;;;1.83;;
27939;SDS011;15275;51.716;14.324;2022-12-29T16:57:55;6.90;;;3.50;;
27939;SDS011;15275;51.716;14.324;2022-12-29T17:00:24;2.38;;;1.80;;
27939;SDS011;15275;51.716;14.324;2022-12-29T17:02:53;3.00;;;1.95;;
27939;SDS011;15275;51.716;14.324;2022-12-29T17:05:22;4.65;;;2.45;;
27939;SDS011;15275;51.716;14.324;2022-12-29T17:07:48;2.72;;;1.90;;
27939;SDS011;15275;51.716;14.324;2022-12-29T17:10:16;3.05;;;1.92;;
27939;SDS011;15275;51.716;14.324;2022-12-29T17:12:42;2.47;;;1.73;;
27939;SDS011;15275;51.716;14.324;2022-12-29T17:17:46;7.78;;;3.92;;
27939;SDS011;15275;51.716;14.324;2022-12-29T17:22:50;6.72;;;4.18;;
27939;SDS011;15275;51.716;14.324;2022-12-29T17:25:22;6.03;;;3.58;;
27939;SDS011;15275;51.716;14.324;2022-12-29T17:27:56;4.97;;;2.50;;
27939;SDS011;15275;51.716;14.324;2022-12-29T17:30:26;5.32;;;2.55;;
27939;SDS011;15275;51.716;14.324;2022-12-29T17:32:57;5.10;;;2.50;;
27939;SDS011;15275;51.716;14.324;2022-12-29T17:35:27;2.10;;;1.80;;
27939;SDS011;15275;51.716;14.324;2022-12-29T17:37:53;2.38;;;2.17;;
27939;SDS011;15275;51.716;14.324;2022-12-29T17:40:31;2.72;;;2.08;;
27939;SDS011;15275;51.716;14.324;2022-12-29T17:42:58;3.30;;;2.67;;
27939;SDS011;15275;51.716;14.324;2022-12-29T17:45:25;14.05;;;7.32;;
27939;SDS011;15275;51.716;14.324;2022-12-29T17:47:55;22.80;;;14.63;;
27939;SDS011;15275;51.716;14.324;2022-12-29T17:50:25;9.38;;;7.40;;
27939;SDS011;15275;51.716;14.324;2022-12-29T17:52:55;7.35;;;4.72;;
27939;SDS011;15275;51.716;14.324;2022-12-29T17:55:28;5.40;;;2.53;;
27939;SDS011;15275;51.716;14.324;2022-12-29T17:57:54;4.28;;;3.17;;
27939;SDS011;15275;51.716;14.324;2022-12-29T18:00:21;4.30;;;2.22;;